sensor_id;sensor_type;location;lat;lon;timestamp;temperature;humidity
41628;DHT22;27321;50.816;6.054;2023-07-13T00:00:40;19.80;54.30
41628;DHT22;27321;50.816;6.054;2023-07-13T00:03:41;19.80;54.70
41628;DHT22;27321;50.816;6.054;2023-07-13T00:06:42;19.80;54.70
41628;DHT22;27321;50.816;6.054;2023-07-13T00:09:46;19.80;54.40
41628;DHT22;27321;50.816;6.054;2023-07-13T00:12:47;19.80;54.70
41628;DHT22;27321;50.816;6.054;2023-07-13T00:15:49;19.80;54.80
41628;DHT22;27321;50.816;6.054;2023-07-13T00:18:50;19.70;55.10
41628;DHT22;27321;50.816;6.054;2023-07-13T00:21:51;19.80;55.10
41628;DHT22;27321;50.816;6.054;2023-07-13T00:24:53;19.80;55.10
41628;DHT22;27321;50.816;6.054;2023-07-13T00:27:56;19.70;55.40
41628;DHT22;27321;50.816;6.054;2023-07-13T00:30:58;19.70;55.60
41628;DHT22;27321;50.816;6.054;2023-07-13T00:34:01;19.70;55.30
41628;DHT22;27321;50.816;6.054;2023-07-13T00:37:02;19.70;55.40
41628;DHT22;27321;50.816;6.054;2023-07-13T00:40:05;19.70;55.20
41628;DHT22;27321;50.816;6.054;2023-07-13T00:43:21;19.70;55.30
41628;DHT22;27321;50.816;6.054;2023-07-13T00:46:31;19.60;55.60
41628;DHT22;27321;50.816;6.054;2023-07-13T00:49:35;19.60;55.70
41628;DHT22;27321;50.816;6.054;2023-07-13T00:52:40;19.50;56.00
41628;DHT22;27321;50.816;6.054;2023-07-13T00:55:43;19.50;56.10
41628;DHT22;27321;50.816;6.054;2023-07-13T00:58:45;19.50;56.10
41628;DHT22;27321;50.816;6.054;2023-07-13T01:01:46;19.40;56.50
41628;DHT22;27321;50.816;6.054;2023-07-13T01:04:48;19.40;56.50
41628;DHT22;27321;50.816;6.054;2023-07-13T01:07:50;19.40;56.50
41628;DHT22;27321;50.816;6.054;2023-07-13T01:10:57;19.30;56.50
41628;DHT22;27321;50.816;6.054;2023-07-13T01:13:58;19.30;56.70
41628;DHT22;27321;50.816;6.054;2023-07-13T01:16:59;19.30;56.90
41628;DHT22;27321;50.816;6.054;2023-07-13T01:20:00;19.20;56.80
41628;DHT22;27321;50.816;6.054;2023-07-13T01:23:06;19.10;56.70
41628;DHT22;27321;50.816;6.054;2023-07-13T01:26:10;19.10;57.10
41628;DHT22;27321;50.816;6.054;2023-07-13T01:29:12;19.10;57.10
41628;DHT22;27321;50.816;6.054;2023-07-13T01:32:20;19.10;57.20
41628;DHT22;27321;50.816;6.054;2023-07-13T01:35:24;19.10;57.10
41628;DHT22;27321;50.816;6.054;2023-07-13T01:38:27;19.00;57.00
41628;DHT22;27321;50.816;6.054;2023-07-13T01:41:28;19.00;57.00
41628;DHT22;27321;50.816;6.054;2023-07-13T01:44:29;19.00;57.20
41628;DHT22;27321;50.816;6.054;2023-07-13T01:47:30;18.90;57.10
41628;DHT22;27321;50.816;6.054;2023-07-13T01:50:32;18.90;57.20
41628;DHT22;27321;50.816;6.054;2023-07-13T01:53:33;18.90;56.90
41628;DHT22;27321;50.816;6.054;2023-07-13T01:56:36;18.90;56.70
41628;DHT22;27321;50.816;6.054;2023-07-13T01:59:37;18.80;56.70
41628;DHT22;27321;50.816;6.054;2023-07-13T02:02:40;18.80;56.60
41628;DHT22;27321;50.816;6.054;2023-07-13T02:05:41;18.70;56.60
41628;DHT22;27321;50.816;6.054;2023-07-13T02:08:43;18.70;56.60
41628;DHT22;27321;50.816;6.054;2023-07-13T02:11:44;18.60;57.10
41628;DHT22;27321;50.816;6.054;2023-07-13T02:14:45;18.60;57.30
41628;DHT22;27321;50.816;6.054;2023-07-13T02:17:46;18.60;57.60
41628;DHT22;27321;50.816;6.054;2023-07-13T02:20:47;18.60;57.70
41628;DHT22;27321;50.816;6.054;2023-07-13T02:23:49;18.60;58.00
41628;DHT22;27321;50.816;6.054;2023-07-13T02:26:50;18.50;58.20
41628;DHT22;27321;50.816;6.054;2023-07-13T02:29:52;18.50;58.60
41628;DHT22;27321;50.816;6.054;2023-07-13T02:33:00;18.40;58.80
41628;DHT22;27321;50.816;6.054;2023-07-13T02:36:02;18.40;58.60
41628;DHT22;27321;50.816;6.054;2023-07-13T02:39:06;18.40;59.10
41628;DHT22;27321;50.816;6.054;2023-07-13T02:42:10;18.40;59.10
41628;DHT22;27321;50.816;6.054;2023-07-13T02:45:12;18.40;59.40
41628;DHT22;27321;50.816;6.054;2023-07-13T02:48:15;18.30;59.90
41628;DHT22;27321;50.816;6.054;2023-07-13T02:51:16;18.30;59.80
41628;DHT22;27321;50.816;6.054;2023-07-13T02:54:17;18.20;60.20
41628;DHT22;27321;50.816;6.054;2023-07-13T02:57:18;18.20;60.40
41628;DHT22;27321;50.816;6.054;2023-07-13T03:00:19;18.20;60.30
41628;DHT22;27321;50.816;6.054;2023-07-13T03:03:21;18.10;60.40
41628;DHT22;27321;50.816;6.054;2023-07-13T03:06:22;18.10;60.80
41628;DHT22;27321;50.816;6.054;2023-07-13T03:09:26;18.00;61.20
41628;DHT22;27321;50.816;6.054;2023-07-13T03:12:28;18.00;61.30
41628;DHT22;27321;50.816;6.054;2023-07-13T03:15:30;18.00;61.30
41628;DHT22;27321;50.816;6.054;2023-07-13T03:18:33;18.00;61.70
41628;DHT22;27321;50.816;6.054;2023-07-13T03:21:37;18.00;61.70
41628;DHT22;27321;50.816;6.054;2023-07-13T03:24:38;18.00;61.90
41628;DHT22;27321;50.816;6.054;2023-07-13T03:27:40;18.00;61.90
41628;DHT22;27321;50.816;6.054;2023-07-13T03:30:43;18.00;61.80
41628;DHT22;27321;50.816;6.054;2023-07-13T03:33:44;18.00;62.00
41628;DHT22;27321;50.816;6.054;2023-07-13T03:36:46;18.00;62.00
41628;DHT22;27321;50.816;6.054;2023-07-13T03:39:48;18.00;62.20
41628;DHT22;27321;50.816;6.054;2023-07-13T03:42:50;18.00;62.30
41628;DHT22;27321;50.816;6.054;2023-07-13T03:45:53;18.00;62.30
41628;DHT22;27321;50.816;6.054;2023-07-13T03:48:54;18.00;62.50
41628;DHT22;27321;50.816;6.054;2023-07-13T03:51:55;18.00;62.80
41628;DHT22;27321;50.816;6.054;2023-07-13T03:54:56;17.90;63.00
41628;DHT22;27321;50.816;6.054;2023-07-13T03:58:22;17.90;63.00
41628;DHT22;27321;50.816;6.054;2023-07-13T04:01:26;17.80;63.50
41628;DHT22;27321;50.816;6.054;2023-07-13T04:04:27;17.70;64.00
41628;DHT22;27321;50.816;6.054;2023-07-13T04:07:28;17.70;64.30
41628;DHT22;27321;50.816;6.054;2023-07-13T04:10:29;17.70;64.20
41628;DHT22;27321;50.816;6.054;2023-07-13T04:13:30;17.80;64.20
41628;DHT22;27321;50.816;6.054;2023-07-13T04:16:31;17.80;64.40
41628;DHT22;27321;50.816;6.054;2023-07-13T04:19:32;17.70;64.40
41628;DHT22;27321;50.816;6.054;2023-07-13T04:22:33;17.70;64.60
41628;DHT22;27321;50.816;6.054;2023-07-13T04:25:34;17.70;64.80
41628;DHT22;27321;50.816;6.054;2023-07-13T04:28:35;17.80;64.70
41628;DHT22;27321;50.816;6.054;2023-07-13T04:31:36;17.80;65.00
41628;DHT22;27321;50.816;6.054;2023-07-13T04:34:37;17.90;64.90
41628;DHT22;27321;50.816;6.054;2023-07-13T04:37:38;17.80;64.70
41628;DHT22;27321;50.816;6.054;2023-07-13T04:40:39;17.80;65.00
41628;DHT22;27321;50.816;6.054;2023-07-13T04:43:40;17.80;65.10
41628;DHT22;27321;50.816;6.054;2023-07-13T04:46:41;17.90;64.90
41628;DHT22;27321;50.816;6.054;2023-07-13T04:49:42;18.00;64.60
41628;DHT22;27321;50.816;6.054;2023-07-13T04:52:43;18.00;64.70
41628;DHT22;27321;50.816;6.054;2023-07-13T04:55:44;18.10;64.50
41628;DHT22;27321;50.816;6.054;2023-07-13T04:58:45;18.10;64.70
41628;DHT22;27321;50.816;6.054;2023-07-13T05:01:46;18.10;64.50
41628;DHT22;27321;50.816;6.054;2023-07-13T05:04:47;18.10;64.40
41628;DHT22;27321;50.816;6.054;2023-07-13T05:07:48;18.10;64.30
41628;DHT22;27321;50.816;6.054;2023-07-13T05:10:50;18.10;64.50
41628;DHT22;27321;50.816;6.054;2023-07-13T05:13:51;18.20;64.60
41628;DHT22;27321;50.816;6.054;2023-07-13T05:16:52;18.20;64.60
41628;DHT22;27321;50.816;6.054;2023-07-13T05:19:53;18.20;64.60
41628;DHT22;27321;50.816;6.054;2023-07-13T05:22:54;18.20;64.20
41628;DHT22;27321;50.816;6.054;2023-07-13T05:25:56;18.30;64.70
41628;DHT22;27321;50.816;6.054;2023-07-13T05:28:57;18.40;64.70
41628;DHT22;27321;50.816;6.054;2023-07-13T05:31:58;18.40;64.80
41628;DHT22;27321;50.816;6.054;2023-07-13T05:34:58;18.50;64.60
41628;DHT22;27321;50.816;6.054;2023-07-13T05:37:59;18.50;64.60
41628;DHT22;27321;50.816;6.054;2023-07-13T05:41:00;18.50;64.60
41628;DHT22;27321;50.816;6.054;2023-07-13T05:44:01;18.50;64.70
41628;DHT22;27321;50.816;6.054;2023-07-13T05:47:02;18.50;64.80
41628;DHT22;27321;50.816;6.054;2023-07-13T05:50:03;18.60;65.00
41628;DHT22;27321;50.816;6.054;2023-07-13T05:53:05;18.60;64.90
41628;DHT22;27321;50.816;6.054;2023-07-13T05:56:06;18.70;64.70
41628;DHT22;27321;50.816;6.054;2023-07-13T05:59:07;18.80;64.70
41628;DHT22;27321;50.816;6.054;2023-07-13T06:02:09;18.80;64.80
41628;DHT22;27321;50.816;6.054;2023-07-13T06:05:11;18.80;64.60
41628;DHT22;27321;50.816;6.054;2023-07-13T06:08:12;18.80;65.00
41628;DHT22;27321;50.816;6.054;2023-07-13T06:11:20;18.80;64.80
41628;DHT22;27321;50.816;6.054;2023-07-13T06:14:23;18.90;65.00
41628;DHT22;27321;50.816;6.054;2023-07-13T06:17:24;18.90;64.90
41628;DHT22;27321;50.816;6.054;2023-07-13T06:20:25;18.90;65.20
41628;DHT22;27321;50.816;6.054;2023-07-13T06:23:26;19.00;65.20
41628;DHT22;27321;50.816;6.054;2023-07-13T06:26:28;19.00;65.00
41628;DHT22;27321;50.816;6.054;2023-07-13T06:29:30;19.00;64.90
41628;DHT22;27321;50.816;6.054;2023-07-13T06:32:31;19.00;65.00
41628;DHT22;27321;50.816;6.054;2023-07-13T06:35:32;19.00;65.00
41628;DHT22;27321;50.816;6.054;2023-07-13T06:38:34;19.00;65.00
41628;DHT22;27321;50.816;6.054;2023-07-13T06:41:35;19.00;65.20
41628;DHT22;27321;50.816;6.054;2023-07-13T06:44:37;19.10;65.50
41628;DHT22;27321;50.816;6.054;2023-07-13T06:47:38;19.30;65.10
41628;DHT22;27321;50.816;6.054;2023-07-13T06:50:39;19.30;64.60
41628;DHT22;27321;50.816;6.054;2023-07-13T06:53:40;19.20;65.00
41628;DHT22;27321;50.816;6.054;2023-07-13T06:56:41;19.30;65.10
41628;DHT22;27321;50.816;6.054;2023-07-13T06:59:41;19.50;64.50
41628;DHT22;27321;50.816;6.054;2023-07-13T07:02:42;19.50;64.70
41628;DHT22;27321;50.816;6.054;2023-07-13T07:05:43;19.50;64.30
41628;DHT22;27321;50.816;6.054;2023-07-13T07:08:45;19.50;64.80
41628;DHT22;27321;50.816;6.054;2023-07-13T07:11:46;19.60;64.50
41628;DHT22;27321;50.816;6.054;2023-07-13T07:14:47;19.60;64.70
41628;DHT22;27321;50.816;6.054;2023-07-13T07:17:47;19.70;64.40
41628;DHT22;27321;50.816;6.054;2023-07-13T07:20:49;19.80;63.90
41628;DHT22;27321;50.816;6.054;2023-07-13T07:23:52;19.70;63.70
41628;DHT22;27321;50.816;6.054;2023-07-13T07:26:52;19.80;64.20
41628;DHT22;27321;50.816;6.054;2023-07-13T07:29:53;19.90;64.20
41628;DHT22;27321;50.816;6.054;2023-07-13T07:32:54;20.00;64.10
41628;DHT22;27321;50.816;6.054;2023-07-13T07:35:55;20.10;63.60
41628;DHT22;27321;50.816;6.054;2023-07-13T07:38:56;20.10;63.30
41628;DHT22;27321;50.816;6.054;2023-07-13T07:41:57;20.10;62.90
41628;DHT22;27321;50.816;6.054;2023-07-13T07:44:58;20.10;63.40
41628;DHT22;27321;50.816;6.054;2023-07-13T07:47:59;20.10;63.10
41628;DHT22;27321;50.816;6.054;2023-07-13T07:51:00;20.20;63.40
41628;DHT22;27321;50.816;6.054;2023-07-13T07:54:01;20.20;63.40
41628;DHT22;27321;50.816;6.054;2023-07-13T07:57:02;20.10;62.90
41628;DHT22;27321;50.816;6.054;2023-07-13T08:00:03;20.10;63.40
41628;DHT22;27321;50.816;6.054;2023-07-13T08:03:15;20.10;63.40
41628;DHT22;27321;50.816;6.054;2023-07-13T08:06:16;20.30;62.80
41628;DHT22;27321;50.816;6.054;2023-07-13T08:09:17;20.40;62.80
41628;DHT22;27321;50.816;6.054;2023-07-13T08:12:18;20.50;62.20
41628;DHT22;27321;50.816;6.054;2023-07-13T08:15:19;20.50;62.40
41628;DHT22;27321;50.816;6.054;2023-07-13T08:18:21;20.60;62.60
41628;DHT22;27321;50.816;6.054;2023-07-13T08:21:22;20.70;62.40
41628;DHT22;27321;50.816;6.054;2023-07-13T08:24:23;20.80;61.90
41628;DHT22;27321;50.816;6.054;2023-07-13T08:27:25;20.80;61.70
41628;DHT22;27321;50.816;6.054;2023-07-13T08:30:28;20.80;61.90
41628;DHT22;27321;50.816;6.054;2023-07-13T08:33:29;20.90;62.10
41628;DHT22;27321;50.816;6.054;2023-07-13T08:36:30;21.00;61.80
41628;DHT22;27321;50.816;6.054;2023-07-13T08:39:31;21.10;61.60
41628;DHT22;27321;50.816;6.054;2023-07-13T08:42:44;21.20;60.70
41628;DHT22;27321;50.816;6.054;2023-07-13T08:45:50;21.30;61.10
41628;DHT22;27321;50.816;6.054;2023-07-13T08:48:56;21.40;59.90
41628;DHT22;27321;50.816;6.054;2023-07-13T08:52:08;21.40;59.90
41628;DHT22;27321;50.816;6.054;2023-07-13T08:55:17;21.50;60.50
41628;DHT22;27321;50.816;6.054;2023-07-13T08:58:20;21.60;60.10
41628;DHT22;27321;50.816;6.054;2023-07-13T09:11:51;21.40;59.00
41628;DHT22;27321;50.816;6.054;2023-07-13T09:15:05;21.30;60.40
41628;DHT22;27321;50.816;6.054;2023-07-13T09:18:42;21.30;59.20
41628;DHT22;27321;50.816;6.054;2023-07-13T09:21:46;21.40;58.70
41628;DHT22;27321;50.816;6.054;2023-07-13T09:27:52;21.60;59.20
41628;DHT22;27321;50.816;6.054;2023-07-13T09:34:12;21.80;58.50
41628;DHT22;27321;50.816;6.054;2023-07-13T09:37:13;21.90;58.50
41628;DHT22;27321;50.816;6.054;2023-07-13T09:40:28;22.00;58.60
41628;DHT22;27321;50.816;6.054;2023-07-13T09:43:36;22.00;57.80
41628;DHT22;27321;50.816;6.054;2023-07-13T09:46:38;21.80;57.50
41628;DHT22;27321;50.816;6.054;2023-07-13T09:49:43;21.60;58.50
41628;DHT22;27321;50.816;6.054;2023-07-13T09:52:48;21.50;59.20
41628;DHT22;27321;50.816;6.054;2023-07-13T09:55:51;21.60;59.40
41628;DHT22;27321;50.816;6.054;2023-07-13T09:58:52;21.80;58.90
41628;DHT22;27321;50.816;6.054;2023-07-13T10:01:53;22.00;58.10
41628;DHT22;27321;50.816;6.054;2023-07-13T10:05:13;22.10;58.70
41628;DHT22;27321;50.816;6.054;2023-07-13T10:08:26;22.20;56.50
41628;DHT22;27321;50.816;6.054;2023-07-13T10:11:30;22.20;57.10
41628;DHT22;27321;50.816;6.054;2023-07-13T10:14:32;22.40;57.40
41628;DHT22;27321;50.816;6.054;2023-07-13T10:17:33;22.50;56.80
41628;DHT22;27321;50.816;6.054;2023-07-13T10:20:34;22.50;56.40
41628;DHT22;27321;50.816;6.054;2023-07-13T10:23:35;22.50;56.50
41628;DHT22;27321;50.816;6.054;2023-07-13T10:26:36;22.40;56.10
41628;DHT22;27321;50.816;6.054;2023-07-13T10:30:01;22.30;56.00
41628;DHT22;27321;50.816;6.054;2023-07-13T10:33:10;22.20;55.10
41628;DHT22;27321;50.816;6.054;2023-07-13T10:36:48;22.30;56.10
41628;DHT22;27321;50.816;6.054;2023-07-13T10:39:50;22.30;56.50
41628;DHT22;27321;50.816;6.054;2023-07-13T10:42:57;22.30;55.50
41628;DHT22;27321;50.816;6.054;2023-07-13T10:46:00;22.40;55.50
41628;DHT22;27321;50.816;6.054;2023-07-13T10:49:05;22.40;55.90
41628;DHT22;27321;50.816;6.054;2023-07-13T10:52:41;22.40;55.60
41628;DHT22;27321;50.816;6.054;2023-07-13T10:59:16;22.40;56.20
41628;DHT22;27321;50.816;6.054;2023-07-13T11:02:29;22.50;55.80
41628;DHT22;27321;50.816;6.054;2023-07-13T11:05:32;22.50;53.90
41628;DHT22;27321;50.816;6.054;2023-07-13T11:08:36;22.40;54.50
41628;DHT22;27321;50.816;6.054;2023-07-13T11:11:38;22.50;54.10
41628;DHT22;27321;50.816;6.054;2023-07-13T11:14:59;22.50;53.90
41628;DHT22;27321;50.816;6.054;2023-07-13T11:18:20;22.50;53.90
41628;DHT22;27321;50.816;6.054;2023-07-13T11:21:26;22.50;54.00
41628;DHT22;27321;50.816;6.054;2023-07-13T11:24:47;22.60;53.20
41628;DHT22;27321;50.816;6.054;2023-07-13T11:28:03;22.60;54.10
41628;DHT22;27321;50.816;6.054;2023-07-13T11:31:15;22.60;53.50
41628;DHT22;27321;50.816;6.054;2023-07-13T11:34:28;22.60;53.20
41628;DHT22;27321;50.816;6.054;2023-07-13T11:37:32;22.60;53.50
41628;DHT22;27321;50.816;6.054;2023-07-13T11:40:33;22.60;53.10
41628;DHT22;27321;50.816;6.054;2023-07-13T11:43:34;22.60;53.40
41628;DHT22;27321;50.816;6.054;2023-07-13T11:46:34;22.50;53.60
41628;DHT22;27321;50.816;6.054;2023-07-13T11:49:45;22.40;54.30
41628;DHT22;27321;50.816;6.054;2023-07-13T11:52:50;22.50;55.60
41628;DHT22;27321;50.816;6.054;2023-07-13T11:55:54;22.50;54.90
41628;DHT22;27321;50.816;6.054;2023-07-13T11:58:57;22.60;54.20
41628;DHT22;27321;50.816;6.054;2023-07-13T12:02:00;22.60;52.30
41628;DHT22;27321;50.816;6.054;2023-07-13T12:05:04;22.70;52.70
41628;DHT22;27321;50.816;6.054;2023-07-13T12:08:10;22.70;52.30
41628;DHT22;27321;50.816;6.054;2023-07-13T12:11:16;22.90;53.10
41628;DHT22;27321;50.816;6.054;2023-07-13T12:14:18;23.00;51.70
41628;DHT22;27321;50.816;6.054;2023-07-13T12:17:22;23.00;51.20
41628;DHT22;27321;50.816;6.054;2023-07-13T12:20:27;22.90;50.20
41628;DHT22;27321;50.816;6.054;2023-07-13T12:23:38;22.90;49.40
41628;DHT22;27321;50.816;6.054;2023-07-13T12:26:39;22.90;49.70
41628;DHT22;27321;50.816;6.054;2023-07-13T12:29:50;23.00;49.90
41628;DHT22;27321;50.816;6.054;2023-07-13T12:33:08;23.00;50.50
41628;DHT22;27321;50.816;6.054;2023-07-13T12:36:12;23.20;50.50
41628;DHT22;27321;50.816;6.054;2023-07-13T12:42:43;23.40;50.90
41628;DHT22;27321;50.816;6.054;2023-07-13T12:45:59;23.50;51.10
41628;DHT22;27321;50.816;6.054;2023-07-13T12:49:07;23.50;50.00
41628;DHT22;27321;50.816;6.054;2023-07-13T12:52:17;23.60;50.70
41628;DHT22;27321;50.816;6.054;2023-07-13T12:55:22;23.60;50.50
41628;DHT22;27321;50.816;6.054;2023-07-13T12:58:31;23.60;48.80
41628;DHT22;27321;50.816;6.054;2023-07-13T13:01:39;23.60;49.40
41628;DHT22;27321;50.816;6.054;2023-07-13T13:04:40;23.50;49.30
41628;DHT22;27321;50.816;6.054;2023-07-13T13:07:43;23.60;48.90
41628;DHT22;27321;50.816;6.054;2023-07-13T13:10:47;23.50;50.00
41628;DHT22;27321;50.816;6.054;2023-07-13T13:13:49;23.50;50.40
41628;DHT22;27321;50.816;6.054;2023-07-13T13:16:51;23.60;49.50
41628;DHT22;27321;50.816;6.054;2023-07-13T13:19:53;23.50;48.50
41628;DHT22;27321;50.816;6.054;2023-07-13T13:22:54;23.60;48.10
41628;DHT22;27321;50.816;6.054;2023-07-13T13:25:55;23.50;48.80
41628;DHT22;27321;50.816;6.054;2023-07-13T13:28:56;23.50;47.90
41628;DHT22;27321;50.816;6.054;2023-07-13T13:31:57;23.50;48.30
41628;DHT22;27321;50.816;6.054;2023-07-13T13:34:58;23.50;48.20
41628;DHT22;27321;50.816;6.054;2023-07-13T13:37:59;23.60;49.10
41628;DHT22;27321;50.816;6.054;2023-07-13T13:41:00;23.60;49.40
41628;DHT22;27321;50.816;6.054;2023-07-13T13:44:01;23.80;48.90
41628;DHT22;27321;50.816;6.054;2023-07-13T13:50:31;24.00;49.20
41628;DHT22;27321;50.816;6.054;2023-07-13T13:53:32;24.10;48.80
41628;DHT22;27321;50.816;6.054;2023-07-13T13:56:33;24.20;48.40
41628;DHT22;27321;50.816;6.054;2023-07-13T13:59:34;24.20;46.70
41628;DHT22;27321;50.816;6.054;2023-07-13T14:02:48;24.20;47.60
41628;DHT22;27321;50.816;6.054;2023-07-13T14:05:51;24.30;48.00
41628;DHT22;27321;50.816;6.054;2023-07-13T14:08:52;24.30;47.70
41628;DHT22;27321;50.816;6.054;2023-07-13T14:11:53;24.20;47.10
41628;DHT22;27321;50.816;6.054;2023-07-13T14:14:55;24.00;46.50
41628;DHT22;27321;50.816;6.054;2023-07-13T14:17:58;23.80;47.50
41628;DHT22;27321;50.816;6.054;2023-07-13T14:20:59;23.80;47.70
41628;DHT22;27321;50.816;6.054;2023-07-13T14:24:00;23.80;47.80
41628;DHT22;27321;50.816;6.054;2023-07-13T14:27:01;23.80;46.70
41628;DHT22;27321;50.816;6.054;2023-07-13T14:30:08;23.90;45.80
41628;DHT22;27321;50.816;6.054;2023-07-13T14:33:14;23.80;46.40
41628;DHT22;27321;50.816;6.054;2023-07-13T14:36:33;23.80;46.00
41628;DHT22;27321;50.816;6.054;2023-07-13T14:39:36;23.80;47.40
41628;DHT22;27321;50.816;6.054;2023-07-13T14:42:38;23.80;46.80
41628;DHT22;27321;50.816;6.054;2023-07-13T14:45:50;23.70;45.90
41628;DHT22;27321;50.816;6.054;2023-07-13T14:48:52;23.70;46.70
41628;DHT22;27321;50.816;6.054;2023-07-13T14:51:58;23.60;46.70
41628;DHT22;27321;50.816;6.054;2023-07-13T14:55:01;23.50;47.40
41628;DHT22;27321;50.816;6.054;2023-07-13T14:58:02;23.30;48.10
41628;DHT22;27321;50.816;6.054;2023-07-13T15:01:03;23.20;48.20
41628;DHT22;27321;50.816;6.054;2023-07-13T15:04:04;23.20;48.80
41628;DHT22;27321;50.816;6.054;2023-07-13T15:07:05;23.10;49.30
41628;DHT22;27321;50.816;6.054;2023-07-13T15:10:23;23.00;50.70
41628;DHT22;27321;50.816;6.054;2023-07-13T15:13:32;22.60;52.30
41628;DHT22;27321;50.816;6.054;2023-07-13T15:16:34;22.50;53.10
41628;DHT22;27321;50.816;6.054;2023-07-13T15:19:35;22.50;53.50
41628;DHT22;27321;50.816;6.054;2023-07-13T15:22:36;22.30;54.20
41628;DHT22;27321;50.816;6.054;2023-07-13T15:25:37;22.20;54.70
41628;DHT22;27321;50.816;6.054;2023-07-13T15:28:39;22.20;54.80
41628;DHT22;27321;50.816;6.054;2023-07-13T15:31:41;22.30;55.00
41628;DHT22;27321;50.816;6.054;2023-07-13T15:34:42;22.20;54.50
41628;DHT22;27321;50.816;6.054;2023-07-13T15:37:43;22.20;54.20
41628;DHT22;27321;50.816;6.054;2023-07-13T15:40:44;22.20;54.70
41628;DHT22;27321;50.816;6.054;2023-07-13T15:43:46;22.20;54.50
41628;DHT22;27321;50.816;6.054;2023-07-13T15:46:47;22.20;54.90
41628;DHT22;27321;50.816;6.054;2023-07-13T15:49:48;22.30;54.70
41628;DHT22;27321;50.816;6.054;2023-07-13T15:52:54;22.30;54.50
41628;DHT22;27321;50.816;6.054;2023-07-13T15:55:57;22.40;54.70
41628;DHT22;27321;50.816;6.054;2023-07-13T15:58:58;22.50;54.40
41628;DHT22;27321;50.816;6.054;2023-07-13T16:01:59;22.70;54.70
41628;DHT22;27321;50.816;6.054;2023-07-13T16:05:00;22.90;53.50
41628;DHT22;27321;50.816;6.054;2023-07-13T16:08:01;23.20;53.90
41628;DHT22;27321;50.816;6.054;2023-07-13T16:11:04;23.30;53.00
41628;DHT22;27321;50.816;6.054;2023-07-13T16:14:06;23.40;52.20
41628;DHT22;27321;50.816;6.054;2023-07-13T16:17:12;23.30;51.70
41628;DHT22;27321;50.816;6.054;2023-07-13T16:20:14;23.30;50.70
41628;DHT22;27321;50.816;6.054;2023-07-13T16:23:16;23.10;51.20
41628;DHT22;27321;50.816;6.054;2023-07-13T16:29:40;23.50;52.30
41628;DHT22;27321;50.816;6.054;2023-07-13T16:32:42;23.50;52.40
41628;DHT22;27321;50.816;6.054;2023-07-13T16:35:43;23.60;52.50
41628;DHT22;27321;50.816;6.054;2023-07-13T16:38:45;23.60;51.90
41628;DHT22;27321;50.816;6.054;2023-07-13T16:41:46;23.60;52.10
41628;DHT22;27321;50.816;6.054;2023-07-13T16:44:47;23.70;52.30
41628;DHT22;27321;50.816;6.054;2023-07-13T16:47:48;23.80;51.70
41628;DHT22;27321;50.816;6.054;2023-07-13T16:50:55;24.00;52.10
41628;DHT22;27321;50.816;6.054;2023-07-13T16:53:57;24.20;52.40
41628;DHT22;27321;50.816;6.054;2023-07-13T16:57:01;24.30;51.10
41628;DHT22;27321;50.816;6.054;2023-07-13T17:00:23;24.50;50.60
41628;DHT22;27321;50.816;6.054;2023-07-13T17:03:29;24.50;50.90
41628;DHT22;27321;50.816;6.054;2023-07-13T17:06:30;24.60;49.80
41628;DHT22;27321;50.816;6.054;2023-07-13T17:09:31;24.60;50.10
41628;DHT22;27321;50.816;6.054;2023-07-13T17:12:32;24.50;50.10
41628;DHT22;27321;50.816;6.054;2023-07-13T17:15:35;24.50;50.10
41628;DHT22;27321;50.816;6.054;2023-07-13T17:18:37;24.40;50.20
41628;DHT22;27321;50.816;6.054;2023-07-13T17:21:39;24.30;50.10
41628;DHT22;27321;50.816;6.054;2023-07-13T17:24:39;24.30;49.90
41628;DHT22;27321;50.816;6.054;2023-07-13T17:27:44;24.10;50.60
41628;DHT22;27321;50.816;6.054;2023-07-13T17:30:47;24.10;51.10
41628;DHT22;27321;50.816;6.054;2023-07-13T17:33:50;24.00;51.50
41628;DHT22;27321;50.816;6.054;2023-07-13T17:36:51;23.90;51.70
41628;DHT22;27321;50.816;6.054;2023-07-13T17:39:51;23.90;51.80
41628;DHT22;27321;50.816;6.054;2023-07-13T17:42:53;23.80;52.00
41628;DHT22;27321;50.816;6.054;2023-07-13T17:45:56;23.80;52.20
41628;DHT22;27321;50.816;6.054;2023-07-13T17:48:57;23.70;52.30
41628;DHT22;27321;50.816;6.054;2023-07-13T17:51:59;23.70;52.60
41628;DHT22;27321;50.816;6.054;2023-07-13T17:55:13;23.70;52.60
41628;DHT22;27321;50.816;6.054;2023-07-13T17:58:16;23.60;52.40
41628;DHT22;27321;50.816;6.054;2023-07-13T18:01:19;23.60;52.40
41628;DHT22;27321;50.816;6.054;2023-07-13T18:04:20;23.50;52.70
41628;DHT22;27321;50.816;6.054;2023-07-13T18:07:23;23.50;52.90
41628;DHT22;27321;50.816;6.054;2023-07-13T18:10:28;23.50;53.40
41628;DHT22;27321;50.816;6.054;2023-07-13T18:13:30;23.40;53.40
41628;DHT22;27321;50.816;6.054;2023-07-13T18:16:40;23.40;53.40
41628;DHT22;27321;50.816;6.054;2023-07-13T18:19:46;23.40;53.80
41628;DHT22;27321;50.816;6.054;2023-07-13T18:22:49;23.50;54.10
41628;DHT22;27321;50.816;6.054;2023-07-13T18:25:52;23.50;53.80
41628;DHT22;27321;50.816;6.054;2023-07-13T18:28:55;23.50;53.80
41628;DHT22;27321;50.816;6.054;2023-07-13T18:31:56;23.40;54.10
41628;DHT22;27321;50.816;6.054;2023-07-13T18:34:58;23.40;54.00
41628;DHT22;27321;50.816;6.054;2023-07-13T18:38:00;23.40;54.30
41628;DHT22;27321;50.816;6.054;2023-07-13T18:41:00;23.30;54.30
41628;DHT22;27321;50.816;6.054;2023-07-13T18:44:01;23.30;54.60
41628;DHT22;27321;50.816;6.054;2023-07-13T18:47:02;23.40;54.60
41628;DHT22;27321;50.816;6.054;2023-07-13T18:50:24;23.40;54.70
41628;DHT22;27321;50.816;6.054;2023-07-13T18:53:32;23.40;55.20
41628;DHT22;27321;50.816;6.054;2023-07-13T18:56:33;23.40;55.10
41628;DHT22;27321;50.816;6.054;2023-07-13T18:59:36;23.40;55.30
41628;DHT22;27321;50.816;6.054;2023-07-13T19:02:37;23.30;55.30
41628;DHT22;27321;50.816;6.054;2023-07-13T19:05:38;23.30;55.60
41628;DHT22;27321;50.816;6.054;2023-07-13T19:08:42;23.20;55.80
41628;DHT22;27321;50.816;6.054;2023-07-13T19:11:43;23.10;56.20
41628;DHT22;27321;50.816;6.054;2023-07-13T19:14:45;23.10;56.20
41628;DHT22;27321;50.816;6.054;2023-07-13T19:17:49;23.00;56.80
41628;DHT22;27321;50.816;6.054;2023-07-13T19:20:55;22.90;56.90
41628;DHT22;27321;50.816;6.054;2023-07-13T19:23:58;22.80;57.20
41628;DHT22;27321;50.816;6.054;2023-07-13T19:27:00;22.60;57.70
41628;DHT22;27321;50.816;6.054;2023-07-13T19:30:01;22.50;57.90
41628;DHT22;27321;50.816;6.054;2023-07-13T19:33:08;22.50;58.00
41628;DHT22;27321;50.816;6.054;2023-07-13T19:36:13;22.50;58.10
41628;DHT22;27321;50.816;6.054;2023-07-13T19:39:28;22.40;58.20
41628;DHT22;27321;50.816;6.054;2023-07-13T19:42:42;22.40;58.30
41628;DHT22;27321;50.816;6.054;2023-07-13T19:45:43;22.30;58.70
41628;DHT22;27321;50.816;6.054;2023-07-13T19:48:44;22.20;59.10